This is the latest recevied weather packets stored in our database for station/object SV2ASS-2. If no packets are shown the sender has not sent any weather packets the latest 10 day(s).
| Time | Temp. | Humidity | Pressure | Rain* | Wind** | Luminosity | Snow |
|---|---|---|---|---|---|---|---|
| 1777460454 | 21.11° C | 47% | 1020.8 hPa | - | - | - | - |
| 1777459553 | 21.11° C | 48% | 1021 hPa | - | - | - | - |
| 1777458652 | 21.11° C | 49% | 1021.1 hPa | - | - | - | - |
| 1777457758 | 20.56° C | 51% | 1021.2 hPa | - | - | - | - |
| 1777456858 | 20.56° C | 51% | 1021.3 hPa | - | - | - | - |
| 1777455957 | 20° C | 51% | 1021.4 hPa | - | - | - | - |
| 1777455057 | 18.89° C | 52% | 1021.6 hPa | - | - | - | - |
| 1777454157 | 18.33° C | 53% | 1021.6 hPa | - | - | - | - |
| 1777453257 | 18.89° C | 54% | 1021.6 hPa | - | - | - | - |
| 1777452357 | 18.33° C | 56% | 1021.7 hPa | - | - | - | - |
| 1777451457 | 17.78° C | 57% | 1021.8 hPa | - | - | - | - |
| 1777450557 | 17.22° C | 58% | 1021.9 hPa | - | - | - | - |
| 1777449657 | 16.11° C | 62% | 1021.9 hPa | - | - | - | - |
| 1777448757 | 16.67° C | 60% | 1021.8 hPa | - | - | - | - |
| 1777447857 | 15.56° C | 61% | 1021.8 hPa | - | - | - | - |
| 1777446957 | 15.56° C | 63% | 1021.8 hPa | - | - | - | - |
| 1777446057 | 15° C | 64% | 1021.8 hPa | - | - | - | - |
| 1777445157 | 14.44° C | 64% | 1021.7 hPa | - | - | - | - |
| 1777444256 | 14.44° C | 63% | 1021.7 hPa | - | - | - | - |
| 1777443356 | 13.89° C | 66% | 1021.5 hPa | - | - | - | - |
| 1777442458 | 13.89° C | 67% | 1021.5 hPa | - | - | - | - |
| 1777441556 | 13.33° C | 69% | 1021.6 hPa | - | - | - | - |
| 1777440656 | 13.33° C | 68% | 1021.5 hPa | - | - | - | - |
| 1777439756 | 12.78° C | 69% | 1021.3 hPa | - | - | - | - |
| 1777438856 | 12.22° C | 71% | 1021.1 hPa | - | - | - | - |
* Rain since midnight (hover to see other rain measurements)
** Current wind speed in m/s (hover to see current wind gust speed)